createdAt,value
2023-02-04T00:00:26.920Z,145.13
2023-02-04T00:02:54.552Z,143.75
2023-02-04T00:05:22.185Z,156.32
2023-02-04T00:07:49.723Z,148.93
2023-02-04T00:10:17.284Z,149.75
2023-02-04T00:12:44.789Z,146.25
2023-02-04T00:15:12.326Z,141.77
2023-02-04T00:17:39.807Z,137.68
2023-02-04T00:20:07.489Z,148.65
2023-02-04T00:22:34.991Z,153.23
2023-02-04T00:25:03.871Z,148.55
2023-02-04T00:27:31.588Z,156.10
2023-02-04T00:29:59.274Z,148.55
2023-02-04T00:32:27.008Z,154.23
2023-02-04T00:34:55.164Z,149.48
2023-02-04T00:37:22.883Z,146.32
2023-02-04T00:39:50.522Z,145.18
2023-02-04T00:42:18.064Z,143.98
2023-02-04T00:44:45.811Z,144.68
2023-02-04T00:47:13.278Z,143.63
2023-02-04T00:49:41.108Z,147.15
2023-02-04T00:52:08.646Z,141.05
2023-02-04T00:54:36.132Z,142.32
2023-02-04T00:57:03.707Z,147.68
2023-02-04T00:59:31.223Z,144.85
2023-02-04T01:01:58.823Z,153.45
2023-02-04T01:04:28.166Z,152.27
2023-02-04T01:06:55.725Z,145.80
2023-02-04T01:09:23.266Z,141.65
2023-02-04T01:11:50.794Z,147.00
2023-02-04T01:14:18.255Z,151.57
2023-02-04T01:16:45.861Z,145.80
2023-02-04T01:19:13.592Z,7.88
2023-02-04T01:21:41.155Z,144.25
2023-02-04T01:24:09.021Z,151.73
2023-02-04T01:26:56.496Z,143.98
2023-02-04T01:29:23.936Z,150.18
2023-02-04T01:31:51.813Z,148.40
2023-02-04T01:34:19.565Z,152.07
2023-02-04T01:36:47.036Z,149.13
2023-02-04T01:39:15.370Z,137.50
2023-02-04T01:41:42.933Z,140.75
2023-02-04T01:44:10.827Z,142.80
2023-02-04T01:46:38.457Z,142.55
2023-02-04T01:49:06.971Z,148.68
2023-02-04T01:51:35.257Z,144.75
2023-02-04T01:54:04.416Z,134.65
2023-02-04T01:56:32.724Z,137.20
2023-02-04T01:59:00.311Z,145.38
2023-02-04T02:01:39.124Z,157.98
2023-02-04T02:04:06.714Z,147.23
2023-02-04T02:06:36.340Z,147.32
2023-02-04T02:09:04.474Z,140.27
2023-02-04T02:11:32.902Z,137.55
2023-02-04T02:14:00.866Z,140.43
2023-02-04T02:16:30.267Z,148.45
2023-02-04T02:18:58.793Z,144.95
2023-02-04T02:21:39.525Z,140.35
2023-02-04T02:24:26.445Z,126.95
2023-02-04T02:26:56.362Z,124.05
2023-02-04T02:29:26.384Z,131.95
2023-02-04T02:31:57.635Z,122.65
2023-02-04T02:34:28.771Z,124.00
2023-02-04T02:36:58.294Z,132.05
2023-02-04T02:39:26.259Z,131.13
2023-02-04T02:41:55.846Z,23.67
2023-02-04T02:44:25.104Z,131.32
2023-02-04T02:46:54.234Z,127.75
2023-02-04T02:49:22.895Z,126.90
2023-02-04T02:51:50.395Z,133.27
2023-02-04T02:54:25.881Z,132.60
2023-02-04T02:56:57.188Z,139.68
2023-02-04T02:59:25.730Z,134.73
2023-02-04T03:02:02.186Z,130.27
2023-02-04T03:04:37.916Z,129.07
2023-02-04T03:07:07.292Z,145.93
2023-02-04T03:09:38.047Z,144.77
2023-02-04T03:12:06.570Z,141.80
2023-02-04T03:14:38.346Z,23.35
2023-02-04T03:17:09.233Z,138.38
2023-02-04T03:19:37.988Z,138.50
2023-02-04T03:22:07.096Z,12.80
2023-02-04T03:24:36.132Z,126.72
2023-02-04T03:27:04.580Z,136.60
2023-02-04T03:29:32.128Z,131.18
2023-02-04T03:32:06.514Z,131.73
2023-02-04T03:34:34.059Z,133.57
2023-02-04T03:37:01.539Z,135.52
2023-02-04T03:39:29.125Z,142.52
2023-02-04T03:41:56.596Z,131.15
2023-02-04T03:44:27.005Z,136.85
2023-02-04T03:46:55.666Z,134.10
2023-02-04T03:49:23.502Z,122.43
2023-02-04T03:51:51.274Z,129.07
2023-02-04T03:54:18.770Z,130.80
2023-02-04T03:56:46.383Z,124.10
2023-02-04T03:59:13.859Z,24.05
2023-02-04T04:01:41.478Z,133.75
2023-02-04T04:04:08.992Z,134.68
2023-02-04T04:06:36.456Z,131.80
2023-02-04T04:09:04.991Z,137.02
2023-02-04T04:11:32.577Z,132.48
2023-02-04T04:14:03.470Z,137.20
2023-02-04T04:16:31.271Z,131.52
2023-02-04T04:18:58.714Z,142.38
2023-02-04T04:21:26.155Z,132.55
2023-02-04T04:23:53.629Z,130.13
2023-02-04T04:26:21.210Z,14.55
2023-02-04T04:28:48.787Z,124.50
2023-02-04T04:31:16.352Z,119.95
2023-02-04T04:33:43.922Z,125.18
2023-02-04T04:36:11.525Z,126.30
2023-02-04T04:38:39.220Z,120.50
2023-02-04T04:41:06.768Z,124.53
2023-02-04T04:43:34.199Z,121.32
2023-02-04T04:46:01.634Z,30.45
2023-02-04T04:48:29.201Z,124.18
2023-02-04T04:50:56.766Z,20.92
2023-02-04T04:53:24.267Z,131.02
2023-02-04T04:55:51.730Z,135.65
2023-02-04T04:58:19.161Z,123.47
2023-02-04T05:00:46.649Z,128.43
2023-02-04T05:03:14.275Z,126.20
2023-02-04T05:05:41.816Z,130.50
2023-02-04T05:08:14.216Z,127.20
2023-02-04T05:10:42.086Z,120.75
2023-02-04T05:13:10.136Z,127.40
2023-02-04T05:15:37.957Z,15.07
2023-02-04T05:18:05.477Z,121.03
2023-02-04T05:20:33.262Z,118.90
2023-02-04T05:23:01.559Z,122.50
2023-02-04T05:25:29.448Z,23.08
2023-02-04T05:27:57.033Z,119.88
2023-02-04T05:30:24.653Z,126.25
2023-02-04T05:32:52.208Z,129.70
2023-02-04T05:35:19.932Z,18.23
2023-02-04T05:37:47.650Z,123.72
2023-02-04T05:40:15.242Z,123.70
2023-02-04T05:42:42.740Z,123.57
2023-02-04T05:45:15.212Z,123.72
2023-02-04T05:47:42.800Z,120.00
2023-02-04T05:50:11.164Z,125.10
2023-02-04T05:52:38.680Z,16.67
2023-02-04T05:55:07.364Z,123.63
2023-02-04T05:57:34.989Z,125.00
2023-02-04T06:00:02.800Z,115.40
2023-02-04T06:02:39.439Z,126.72
2023-02-04T06:05:07.220Z,117.53
2023-02-04T06:07:34.719Z,118.68
2023-02-04T06:10:02.214Z,115.03
2023-02-04T06:12:29.720Z,121.35
2023-02-04T06:14:57.254Z,114.50
2023-02-04T06:17:24.698Z,119.88
2023-02-04T06:19:52.376Z,120.70
2023-02-04T06:22:19.962Z,126.40
2023-02-04T06:24:47.702Z,26.85
2023-02-04T06:27:18.681Z,127.65
2023-02-04T06:29:46.134Z,125.45
2023-02-04T06:32:13.748Z,123.47
2023-02-04T06:34:41.474Z,115.30
2023-02-04T06:37:09.063Z,107.70
2023-02-04T06:39:36.750Z,111.50
2023-02-04T06:42:04.597Z,116.28
2023-02-04T06:44:32.122Z,112.88
2023-02-04T06:46:59.697Z,108.43
2023-02-04T06:49:27.238Z,105.18
2023-02-04T06:51:55.454Z,116.10
2023-02-04T06:54:23.025Z,106.93
2023-02-04T06:56:50.628Z,112.88
2023-02-04T06:59:18.549Z,114.50
2023-02-04T07:01:46.441Z,114.90
2023-02-04T07:04:14.012Z,112.32
2023-02-04T07:06:41.524Z,113.25
2023-02-04T07:09:09.019Z,111.47
2023-02-04T07:11:36.526Z,107.35
2023-02-04T07:14:04.100Z,8.50
2023-02-04T07:16:31.614Z,112.32
2023-02-04T07:18:59.224Z,101.80
2023-02-04T07:21:27.461Z,110.30
2023-02-04T07:23:55.001Z,26.45
2023-02-04T07:26:22.597Z,119.13
2023-02-04T07:28:50.181Z,119.60
2023-02-04T07:31:20.519Z,29.25
2023-02-04T07:33:48.276Z,116.97
2023-02-04T07:36:15.912Z,116.32
2023-02-04T07:38:43.510Z,113.32
2023-02-04T07:41:11.048Z,110.07
2023-02-04T07:43:38.873Z,107.53
2023-02-04T07:46:06.466Z,110.72
2023-02-04T07:48:34.165Z,113.45
2023-02-04T07:51:01.738Z,111.10
2023-02-04T07:53:29.257Z,109.07
2023-02-04T07:55:56.761Z,107.93
2023-02-04T07:58:24.415Z,106.63
2023-02-04T08:00:51.903Z,113.72
2023-02-04T08:03:19.429Z,111.50
2023-02-04T08:05:46.920Z,117.47
2023-02-04T08:08:15.345Z,120.22
2023-02-04T08:10:42.846Z,115.13
2023-02-04T08:13:10.533Z,109.90
2023-02-04T08:15:38.137Z,106.50
2023-02-04T08:18:05.851Z,108.20
2023-02-04T08:20:33.725Z,133.20
2023-02-04T08:23:01.341Z,134.07
2023-02-04T08:25:29.798Z,146.68
2023-02-04T08:27:57.256Z,141.25
2023-02-04T08:30:24.867Z,131.10
2023-02-04T08:32:52.521Z,125.68
2023-02-04T08:35:20.067Z,124.63
2023-02-04T08:37:47.572Z,115.72
2023-02-04T08:40:15.081Z,112.55
2023-02-04T08:42:46.491Z,117.50
2023-02-04T08:45:17.169Z,116.25
2023-02-04T08:47:44.671Z,116.40
2023-02-04T08:50:12.511Z,118.40
2023-02-04T08:52:40.253Z,107.30
2023-02-04T08:55:14.393Z,101.78
2023-02-04T08:57:41.987Z,102.03
2023-02-04T09:00:11.982Z,103.20
2023-02-04T09:02:39.513Z,98.53
2023-02-04T09:05:07.346Z,98.10
2023-02-04T09:07:34.827Z,95.45
2023-02-04T09:10:02.413Z,96.30
2023-02-04T09:12:30.746Z,103.43
2023-02-04T09:14:58.186Z,101.70
2023-02-04T09:17:26.610Z,97.78
2023-02-04T09:19:54.130Z,99.85
2023-02-04T09:22:21.603Z,100.18
2023-02-04T09:24:50.283Z,101.10
2023-02-04T09:27:17.805Z,100.18
2023-02-04T09:29:45.465Z,104.75
2023-02-04T09:32:13.102Z,100.53
2023-02-04T09:34:41.138Z,100.72
2023-02-04T09:37:09.162Z,100.93
2023-02-04T09:39:36.829Z,102.25
2023-02-04T09:42:04.980Z,101.13
2023-02-04T09:44:32.707Z,102.25
2023-02-04T09:47:01.236Z,104.90
2023-02-04T09:49:28.990Z,106.18
2023-02-04T09:51:57.273Z,107.15
2023-02-04T09:54:26.173Z,109.95
2023-02-04T09:56:54.240Z,110.20
2023-02-04T09:59:23.922Z,107.30
2023-02-04T10:01:59.732Z,118.20
2023-02-04T10:04:28.368Z,118.80
2023-02-04T10:06:59.083Z,118.55
2023-02-04T10:09:26.910Z,111.93
2023-02-04T10:11:54.783Z,114.63
2023-02-04T10:14:23.497Z,114.78
2023-02-04T10:17:01.513Z,116.50
2023-02-04T10:19:30.943Z,115.00
2023-02-04T10:21:58.784Z,115.10
2023-02-04T10:24:28.691Z,112.47
2023-02-04T10:27:08.985Z,114.05
2023-02-04T10:29:37.456Z,115.10
2023-02-04T10:32:05.217Z,111.30
2023-02-04T10:34:40.164Z,110.63
2023-02-04T10:37:21.473Z,115.07
2023-02-04T10:39:50.000Z,115.53
2023-02-04T10:42:26.415Z,122.43
2023-02-04T10:44:54.356Z,118.68
2023-02-04T10:47:29.362Z,117.05
2023-02-04T10:49:56.720Z,125.88
2023-02-04T10:52:31.182Z,119.65
2023-02-04T10:54:59.049Z,122.73
2023-02-04T10:57:28.525Z,122.57
2023-02-04T11:00:02.672Z,119.95
2023-02-04T11:02:43.832Z,121.72
2023-02-04T11:05:23.491Z,127.60
2023-02-04T11:07:51.351Z,123.07
2023-02-04T11:10:22.994Z,122.72
2023-02-04T11:12:53.157Z,118.85
2023-02-04T11:15:49.272Z,124.47
2023-02-04T11:18:20.685Z,124.60
2023-02-04T11:20:50.107Z,121.28
2023-02-04T11:23:26.489Z,123.35
2023-02-04T11:26:09.855Z,118.82
2023-02-04T11:28:50.711Z,119.07
2023-02-04T11:31:21.020Z,120.18
2023-02-04T11:33:50.379Z,126.57
2023-02-04T11:36:18.105Z,120.53
2023-02-04T11:38:48.151Z,117.75
2023-02-04T11:41:27.029Z,121.10
2023-02-04T11:43:56.577Z,111.88
2023-02-04T11:46:26.911Z,113.18
2023-02-04T11:48:56.637Z,121.35
2023-02-04T11:51:30.771Z,121.45
2023-02-04T11:53:58.552Z,119.13
2023-02-04T11:56:29.554Z,123.88
2023-02-04T11:58:58.657Z,123.10
2023-02-04T12:01:32.887Z,119.25
2023-02-04T12:04:03.624Z,122.55
2023-02-04T12:06:33.805Z,121.32
2023-02-04T12:09:26.293Z,120.93
2023-02-04T12:11:54.834Z,116.45
2023-02-04T12:14:22.304Z,118.70
2023-02-04T12:16:56.486Z,122.05
2023-02-04T12:19:26.710Z,121.30
2023-02-04T12:21:55.827Z,121.63
2023-02-04T12:24:23.384Z,123.53
2023-02-04T12:26:51.783Z,119.70
2023-02-04T12:29:19.249Z,122.30
2023-02-04T12:31:46.910Z,120.68
2023-02-04T12:34:14.389Z,116.50
2023-02-04T12:36:41.860Z,120.28
2023-02-04T12:39:10.481Z,123.20
2023-02-04T12:41:37.945Z,134.60
2023-02-04T12:44:05.467Z,122.97
2023-02-04T12:46:33.445Z,119.32
2023-02-04T12:49:01.131Z,113.00
2023-02-04T12:51:28.646Z,111.82
2023-02-04T12:53:56.279Z,114.88
2023-02-04T12:56:24.418Z,114.68
2023-02-04T12:58:51.979Z,118.50
2023-02-04T13:01:19.511Z,116.90
2023-02-04T13:03:47.051Z,119.45
2023-02-04T13:11:13.708Z,109.22
2023-02-04T13:13:48.859Z,107.63
2023-02-04T13:16:19.471Z,110.25
2023-02-04T13:18:48.525Z,108.10
2023-02-04T13:21:22.075Z,112.32
2023-02-04T13:23:55.064Z,107.60
2023-02-04T13:26:23.904Z,108.97
2023-02-04T13:38:06.409Z,103.07
2023-02-04T13:50:41.632Z,102.85
2023-02-04T13:57:53.081Z,103.72
2023-02-04T14:00:41.592Z,99.65
2023-02-04T14:03:17.052Z,103.63
2023-02-04T14:17:00.771Z,96.53
2023-02-04T14:23:09.419Z,101.13
2023-02-04T14:25:36.983Z,91.60
2023-02-04T14:28:06.089Z,99.43
2023-02-04T14:30:34.409Z,89.82
2023-02-04T14:33:02.146Z,95.38
2023-02-04T14:35:32.823Z,92.47
2023-02-04T14:38:00.618Z,90.65
2023-02-04T14:40:28.067Z,92.28
2023-02-04T14:42:55.507Z,94.30
2023-02-04T14:45:22.988Z,89.95
2023-02-04T14:47:52.704Z,95.10
2023-02-04T14:50:20.231Z,96.18
2023-02-04T14:52:47.612Z,97.13
2023-02-04T14:55:15.349Z,96.35
2023-02-04T14:57:42.811Z,96.25
2023-02-04T15:00:11.143Z,94.95
2023-02-04T15:02:39.355Z,100.15
2023-02-04T15:05:07.174Z,100.95
2023-02-04T15:07:34.926Z,107.10
2023-02-04T15:10:02.772Z,111.82
2023-02-04T15:12:30.187Z,110.88
2023-02-04T15:14:57.680Z,110.50
2023-02-04T15:17:28.299Z,117.57
2023-02-04T15:19:58.329Z,124.57
2023-02-04T15:22:25.811Z,130.57
2023-02-04T15:24:53.605Z,130.07
2023-02-04T15:27:21.139Z,138.35
2023-02-04T15:29:48.574Z,136.43
2023-02-04T15:32:23.486Z,143.68
2023-02-04T15:34:51.100Z,145.45
2023-02-04T15:37:19.204Z,149.07
2023-02-04T15:39:46.718Z,143.32
2023-02-04T15:42:14.984Z,147.38
2023-02-04T15:44:42.460Z,148.25
2023-02-04T15:47:10.032Z,142.77
2023-02-04T15:49:37.933Z,140.20
2023-02-04T15:52:08.860Z,145.18
2023-02-04T15:54:38.691Z,140.48
2023-02-04T15:57:06.342Z,141.80
2023-02-04T15:59:33.844Z,139.68
2023-02-04T16:02:01.414Z,135.43
2023-02-04T16:04:29.012Z,141.77
2023-02-04T16:06:59.018Z,141.55
2023-02-04T16:09:26.681Z,139.98
2023-02-04T16:11:54.639Z,142.50
2023-02-04T16:14:22.173Z,138.57
2023-02-04T16:16:49.651Z,138.80
2023-02-04T16:19:17.361Z,143.13
2023-02-04T16:21:44.900Z,141.85
2023-02-04T16:24:18.526Z,137.55
2023-02-04T16:26:46.235Z,138.18
2023-02-04T16:29:13.662Z,140.00
2023-02-04T16:31:41.208Z,136.55
2023-02-04T16:34:08.733Z,134.38
2023-02-04T16:36:36.204Z,129.85
2023-02-04T16:39:03.983Z,131.25
2023-02-04T16:41:31.496Z,134.32
2023-02-04T16:44:00.232Z,128.50
2023-02-04T16:46:30.589Z,133.88
2023-02-04T16:48:58.058Z,133.13
2023-02-04T16:51:25.677Z,132.43
2023-02-04T16:53:53.098Z,125.03
2023-02-04T16:56:20.599Z,128.63
2023-02-04T16:58:48.486Z,133.65
2023-02-04T17:01:17.513Z,126.00
2023-02-04T17:03:45.064Z,128.95
2023-02-04T17:06:16.424Z,129.50
2023-02-04T17:08:43.903Z,123.95
2023-02-04T17:11:29.107Z,124.78
2023-02-04T17:14:18.850Z,120.95
2023-02-04T17:16:47.240Z,114.85
2023-02-04T17:19:21.017Z,116.45
2023-02-04T17:21:49.110Z,114.07
2023-02-04T17:24:18.951Z,114.82
2023-02-04T17:26:46.584Z,108.20
2023-02-04T17:29:17.485Z,106.35
2023-02-04T17:31:45.008Z,104.00
2023-02-04T17:34:12.652Z,97.50
2023-02-04T17:36:40.183Z,94.70
2023-02-04T17:39:08.050Z,91.97
2023-02-04T17:41:35.437Z,84.97
2023-02-04T17:44:03.597Z,87.70
2023-02-04T17:46:31.434Z,82.63
2023-02-04T17:48:59.015Z,83.60
2023-02-04T17:51:26.561Z,75.20
2023-02-04T17:53:54.010Z,73.75
2023-02-04T17:56:40.162Z,68.65
2023-02-04T17:59:10.201Z,65.53
2023-02-04T18:01:38.011Z,65.43
2023-02-04T18:04:11.773Z,63.55
2023-02-04T18:06:39.343Z,64.65
2023-02-04T18:09:17.381Z,59.67
2023-02-04T18:11:45.258Z,57.00
2023-02-04T18:14:20.867Z,51.47
2023-02-04T18:16:48.954Z,51.60
2023-02-04T18:19:22.160Z,52.28
2023-02-04T18:21:50.114Z,48.70
2023-02-04T18:24:30.582Z,50.78
2023-02-04T18:27:09.061Z,50.45
2023-02-04T18:29:39.570Z,49.92
2023-02-04T18:32:20.488Z,51.35
2023-02-04T18:34:53.404Z,48.97
2023-02-04T18:37:36.590Z,52.67
2023-02-04T18:40:11.214Z,47.28
2023-02-04T18:42:43.421Z,47.63
2023-02-04T18:45:30.485Z,50.97
2023-02-04T18:48:01.278Z,52.28
2023-02-04T18:50:32.245Z,49.83
2023-02-04T18:53:22.042Z,51.55
2023-02-04T18:55:55.502Z,50.95
2023-02-04T18:58:43.088Z,48.38
2023-02-04T19:01:11.719Z,49.90
2023-02-04T19:03:53.358Z,44.47
2023-02-04T19:06:33.023Z,41.28
2023-02-04T19:09:12.342Z,44.13
2023-02-04T19:11:46.301Z,44.55
2023-02-04T19:14:22.587Z,42.42
2023-02-04T19:16:52.854Z,42.55
2023-02-04T19:19:26.211Z,40.67
2023-02-04T19:21:53.744Z,39.38
2023-02-04T19:24:25.126Z,39.08
2023-02-04T19:26:58.701Z,40.70
2023-02-04T19:29:38.816Z,36.47
2023-02-04T19:32:24.265Z,36.38
2023-02-04T19:34:53.914Z,36.85
2023-02-04T19:37:39.941Z,33.50
2023-02-04T19:40:24.074Z,32.90
2023-02-04T19:43:02.298Z,33.63
2023-02-04T19:45:30.138Z,35.92
2023-02-04T19:47:57.691Z,34.92
2023-02-04T19:50:32.730Z,34.45
2023-02-04T19:53:08.960Z,35.33
2023-02-04T19:55:44.231Z,35.88
2023-02-04T19:58:18.420Z,35.53
2023-02-04T20:00:56.030Z,36.00
2023-02-04T20:03:35.898Z,33.22
2023-02-04T20:06:09.527Z,32.10
2023-02-04T20:08:41.687Z,37.20
2023-02-04T20:11:18.091Z,34.03
2023-02-04T20:13:45.595Z,36.55
2023-02-04T20:16:40.813Z,33.35
2023-02-04T20:19:26.335Z,36.72
2023-02-04T20:22:12.540Z,36.80
2023-02-04T20:24:41.796Z,41.47
2023-02-04T20:27:22.374Z,38.45
2023-02-04T20:30:01.214Z,40.28
2023-02-04T20:32:30.310Z,38.00
2023-02-04T20:35:07.748Z,33.58
2023-02-04T20:37:36.099Z,34.05
2023-02-04T20:40:31.920Z,32.25
2023-02-04T20:43:20.331Z,33.25
2023-02-04T20:45:55.190Z,29.23
2023-02-04T20:48:33.868Z,31.88
2023-02-04T20:51:05.481Z,28.05
2023-02-04T20:53:41.801Z,30.88
2023-02-04T20:56:30.600Z,33.00
2023-02-04T20:59:12.942Z,34.00
2023-02-04T21:01:46.638Z,34.10
2023-02-04T21:04:37.393Z,35.85
2023-02-04T21:07:22.988Z,41.47
2023-02-04T21:09:52.051Z,41.10
2023-02-04T21:12:20.543Z,40.05
2023-02-04T21:14:50.434Z,45.72
2023-02-04T21:17:17.954Z,44.25
2023-02-04T21:19:45.525Z,46.47
2023-02-04T21:22:13.045Z,45.58
2023-02-04T21:24:44.725Z,49.70
2023-02-04T21:27:12.470Z,45.88
2023-02-04T21:29:39.926Z,42.97
2023-02-04T21:32:08.613Z,42.08
2023-02-04T21:34:36.078Z,38.25
2023-02-04T21:37:03.620Z,38.67
2023-02-04T21:39:31.177Z,36.97
2023-02-04T21:42:13.529Z,37.67
2023-02-04T21:44:41.145Z,35.15
2023-02-04T21:47:08.715Z,38.17
2023-02-04T21:49:39.461Z,37.63
2023-02-04T21:52:07.856Z,35.03
2023-02-04T21:54:35.518Z,31.65
2023-02-04T21:57:04.529Z,30.08
2023-02-04T21:59:32.060Z,28.70
2023-02-04T22:01:59.720Z,29.90
2023-02-04T22:04:29.520Z,26.33
2023-02-04T22:06:57.114Z,25.08
2023-02-04T22:09:25.790Z,23.70
2023-02-04T22:11:53.314Z,24.13
2023-02-04T22:14:40.171Z,20.75
2023-02-04T22:17:07.739Z,21.23
2023-02-04T22:19:35.250Z,21.48
2023-02-04T22:22:02.767Z,17.10
2023-02-04T22:24:30.297Z,16.85
2023-02-04T22:26:57.920Z,17.38
2023-02-04T22:29:28.877Z,16.73
2023-02-04T22:31:56.590Z,16.00
2023-02-04T22:34:25.341Z,17.05
2023-02-04T22:36:53.247Z,15.23
2023-02-04T22:39:20.845Z,16.90
2023-02-04T22:41:53.473Z,17.08
2023-02-04T22:44:55.546Z,15.70
2023-02-04T22:47:28.831Z,13.18
2023-02-04T22:49:56.404Z,13.23
2023-02-04T22:52:27.564Z,12.20
2023-02-04T22:55:04.844Z,12.77
2023-02-04T22:57:32.467Z,13.05
2023-02-04T23:00:00.072Z,14.02
2023-02-04T23:02:27.757Z,13.77
2023-02-04T23:04:57.402Z,10.23
2023-02-04T23:07:29.812Z,15.02
2023-02-04T23:09:59.991Z,14.68
2023-02-04T23:12:30.128Z,13.43
2023-02-04T23:15:08.626Z,13.25
2023-02-04T23:17:36.398Z,10.95
2023-02-04T23:20:07.642Z,13.77
2023-02-04T23:22:35.394Z,12.57
2023-02-04T23:25:06.632Z,12.13
2023-02-04T23:27:34.490Z,11.90
2023-02-04T23:30:04.501Z,9.10
2023-02-04T23:32:32.284Z,14.25
2023-02-04T23:35:00.083Z,11.10
2023-02-04T23:37:33.718Z,14.35
2023-02-04T23:40:06.007Z,15.25
2023-02-04T23:42:34.105Z,13.35
2023-02-04T23:50:14.933Z,20.63
2023-02-04T23:55:52.663Z,15.07
